Time;durP1;ratioP1;P1;durP2;ratioP2;P2;SDS_P1;SDS_P2;PMS_P1;PMS_P2;Temp;Humidity;BMP_temperature;BMP_pressure;BME280_temperature;BME280_humidity;BME280_pressure;Samples;Min_cycle;Max_cycle;Signal;HPM_P1;HPM_P2
2024/01/27 00:00:17;;;;;;;19.00;7.53;;;3.00;1.00;;;;;;5118177;28;20456;-63
2024/01/27 00:02:46;;;;;;;12.50;6.00;;;2.90;99.90;;;;;;5118243;28;20949;-63
2024/01/27 00:05:13;;;;;;;23.37;6.77;;;2.80;99.90;;;;;;5117804;28;20503;-63
2024/01/27 00:07:41;;;;;;;18.37;6.77;;;2.70;99.90;;;;;;5117864;28;20456;-63
2024/01/27 00:10:10;;;;;;;15.33;6.27;;;2.70;99.90;;;;;;5117640;28;20436;-63
2024/01/27 00:12:38;;;;;;;19.90;6.50;;;2.60;99.90;;;;;;5118006;28;20943;-63
2024/01/27 00:15:08;;;;;;;11.63;6.03;;;2.60;1.00;;;;;;5117909;28;20455;-64
2024/01/27 00:17:35;;;;;;;18.53;6.20;;;2.60;1.00;;;;;;5117404;28;20815;-63
2024/01/27 00:20:03;;;;;;;17.93;7.17;;;2.70;99.90;;;;;;5117956;28;20466;-64
2024/01/27 00:22:30;;;;;;;21.93;6.57;;;2.70;74.80;;;;;;5117905;28;20835;-63
2024/01/27 00:24:57;;;;;;;26.33;7.40;;;2.70;92.30;;;;;;5117460;28;20422;-63
2024/01/27 00:27:26;;;;;;;26.87;7.23;;;2.70;69.60;;;;;;5117255;28;20616;-63
2024/01/27 00:29:54;;;;;;;14.60;6.27;;;2.70;1.00;;;;;;5118093;28;20911;-63
2024/01/27 00:32:21;;;;;;;17.83;7.70;;;2.60;1.00;;;;;;5117762;28;20451;-63
2024/01/27 00:34:48;;;;;;;16.33;5.83;;;2.60;1.00;;;;;;5117715;28;20459;-63
2024/01/27 00:37:16;;;;;;;23.80;6.87;;;2.50;1.00;;;;;;5117865;28;20517;-63
2024/01/27 00:39:45;;;;;;;17.13;6.60;;;2.50;1.00;;;;;;5119660;28;20790;-64
2024/01/27 00:42:12;;;;;;;18.50;6.40;;;2.50;1.00;;;;;;5121602;28;20467;-63
2024/01/27 00:44:41;;;;;;;18.00;5.60;;;2.50;1.00;;;;;;5121333;28;20459;-63
2024/01/27 00:47:08;;;;;;;15.70;6.57;;;2.40;1.00;;;;;;5121215;28;20498;-63
2024/01/27 00:49:36;;;;;;;18.57;6.50;;;2.40;1.00;;;;;;5120815;28;20452;-63
2024/01/27 00:52:03;;;;;;;24.90;6.60;;;2.40;1.00;;;;;;5121184;28;20919;-63
2024/01/27 00:54:31;;;;;;;17.37;7.27;;;2.30;1.00;;;;;;5120831;28;20455;-64
2024/01/27 00:56:59;;;;;;;18.17;7.00;;;2.30;1.00;;;;;;5120841;28;20880;-63
2024/01/27 00:59:26;;;;;;;17.03;6.83;;;2.30;99.90;;;;;;5120410;28;21020;-64
2024/01/27 01:01:56;;;;;;;20.20;6.57;;;2.30;99.90;;;;;;5120790;28;20459;-63
2024/01/27 01:04:23;;;;;;;14.57;5.60;;;2.30;99.90;;;;;;5120894;28;20803;-63
2024/01/27 01:06:50;;;;;;;19.30;6.13;;;2.20;1.00;;;;;;5121003;28;20455;-64
2024/01/27 01:09:18;;;;;;;14.50;7.37;;;2.10;1.00;;;;;;5121138;27;20455;-63
2024/01/27 01:11:45;;;;;;;17.70;7.50;;;2.00;1.00;;;;;;5120272;28;20479;-63
2024/01/27 01:14:14;;;;;;;17.10;6.77;;;1.90;1.00;;;;;;5120842;28;20523;-64
2024/01/27 01:16:42;;;;;;;17.00;7.63;;;1.80;1.00;;;;;;5120559;28;20463;-63
2024/01/27 01:19:11;;;;;;;15.67;8.00;;;1.80;1.00;;;;;;5120348;28;20537;-63
2024/01/27 01:21:38;;;;;;;16.10;5.40;;;1.60;1.00;;;;;;5120141;28;20456;-63
2024/01/27 01:24:06;;;;;;;12.77;5.80;;;1.60;71.60;;;;;;5120577;28;20809;-63
2024/01/27 01:26:33;;;;;;;16.20;7.33;;;1.50;99.90;;;;;;5120651;28;20430;-63
2024/01/27 01:29:00;;;;;;;17.20;5.73;;;1.40;1.00;;;;;;5119287;28;20501;-64
2024/01/27 01:31:28;;;;;;;13.13;6.27;;;1.30;99.90;;;;;;5118361;28;20486;-63
2024/01/27 01:33:55;;;;;;;16.70;5.77;;;1.30;99.90;;;;;;5118605;28;20461;-64
2024/01/27 01:36:24;;;;;;;18.70;6.03;;;1.30;1.00;;;;;;5118475;28;20470;-64
2024/01/27 01:38:51;;;;;;;16.93;5.97;;;1.20;99.90;;;;;;5118845;28;20491;-64
2024/01/27 01:41:19;;;;;;;11.97;5.67;;;1.20;1.00;;;;;;5118845;28;20488;-63
2024/01/27 01:43:46;;;;;;;14.33;5.23;;;1.20;1.00;;;;;;5117895;28;20452;-63
2024/01/27 01:46:16;;;;;;;13.40;6.30;;;1.20;1.00;;;;;;5117913;28;20904;-63
2024/01/27 01:48:44;;;;;;;13.47;6.20;;;1.10;1.00;;;;;;5119418;28;20979;-63
2024/01/27 01:51:11;;;;;;;18.10;7.10;;;1.10;1.00;;;;;;5118256;28;20459;-63
2024/01/27 01:53:40;;;;;;;19.83;6.40;;;1.10;99.90;;;;;;5118250;28;20571;-63
2024/01/27 01:56:08;;;;;;;12.30;5.50;;;1.10;1.00;;;;;;5118014;27;20454;-63
2024/01/27 01:58:36;;;;;;;16.67;6.73;;;1.00;99.90;;;;;;5118307;28;20759;-63
2024/01/27 02:01:03;;;;;;;13.30;6.00;;;1.00;1.00;;;;;;5118357;28;20487;-63
2024/01/27 02:03:30;;;;;;;19.37;6.67;;;0.90;1.00;;;;;;5117998;28;20488;-62
2024/01/27 02:05:58;;;;;;;22.30;6.80;;;0.80;1.00;;;;;;5118303;28;20479;-62
2024/01/27 02:08:25;;;;;;;14.60;6.70;;;0.90;99.90;;;;;;5119784;28;20467;-62
2024/01/27 02:10:54;;;;;;;17.23;7.80;;;0.90;94.50;;;;;;5119302;28;20528;-62
2024/01/27 02:13:23;;;;;;;18.73;8.00;;;0.90;1.00;;;;;;5119685;28;20956;-62
2024/01/27 02:15:51;;;;;;;12.67;7.40;;;0.80;1.00;;;;;;5119522;28;20456;-62
2024/01/27 02:18:19;;;;;;;19.80;6.70;;;0.80;1.00;;;;;;5119718;28;20455;-62
2024/01/27 02:20:47;;;;;;;12.60;5.97;;;0.80;1.00;;;;;;5119739;28;20463;-62
2024/01/27 02:23:14;;;;;;;15.33;6.60;;;0.80;1.00;;;;;;5119705;28;20555;-62
2024/01/27 02:25:43;;;;;;;15.30;6.20;;;0.80;1.00;;;;;;5119215;28;20930;-62
2024/01/27 02:28:10;;;;;;;12.97;5.73;;;0.70;1.00;;;;;;5119504;28;20466;-62
2024/01/27 02:30:37;;;;;;;14.40;5.70;;;0.60;99.90;;;;;;5119146;28;20471;-62
2024/01/27 02:33:06;;;;;;;15.50;6.63;;;0.70;19.90;;;;;;5119370;28;20496;-63
2024/01/27 02:35:33;;;;;;;16.43;6.83;;;0.70;99.90;;;;;;5119484;28;20456;-62
2024/01/27 02:38:00;;;;;;;15.47;7.00;;;0.70;99.90;;;;;;5118628;28;20463;-62
2024/01/27 02:40:27;;;;;;;15.67;6.67;;;0.70;1.00;;;;;;5119352;28;20491;-62
2024/01/27 02:42:56;;;;;;;15.97;5.90;;;0.70;99.90;;;;;;5119062;28;20942;-62
2024/01/27 02:45:24;;;;;;;10.67;5.30;;;0.80;99.90;;;;;;5118307;28;20549;-62
2024/01/27 02:47:53;;;;;;;16.27;7.73;;;0.80;99.90;;;;;;5118734;28;20558;-63
2024/01/27 02:50:22;;;;;;;14.00;6.07;;;0.90;1.00;;;;;;5118710;28;20459;-62
2024/01/27 02:52:50;;;;;;;20.77;6.13;;;0.80;99.90;;;;;;5118831;28;20471;-62
2024/01/27 02:55:19;;;;;;;14.37;6.20;;;0.80;99.90;;;;;;5119185;28;20467;-62
2024/01/27 02:57:48;;;;;;;13.70;5.70;;;0.70;1.00;;;;;;5118575;28;20738;-63
2024/01/27 03:00:20;;;;;;;18.27;7.10;;;0.70;99.90;;;;;;5119082;28;20495;-63
2024/01/27 03:02:48;;;;;;;19.20;6.60;;;0.60;12.40;;;;;;5118926;28;20438;-63
2024/01/27 03:05:17;;;;;;;11.57;5.70;;;0.60;99.90;;;;;;5119116;28;20948;-63
2024/01/27 03:07:47;;;;;;;15.07;6.10;;;0.70;1.00;;;;;;5118556;28;20964;-62
2024/01/27 03:10:15;;;;;;;16.53;5.80;;;0.60;99.90;;;;;;5118087;28;20490;-63
2024/01/27 03:12:44;;;;;;;14.60;5.93;;;0.60;1.00;;;;;;5118546;28;20442;-63
2024/01/27 03:15:12;;;;;;;15.17;6.93;;;0.70;99.90;;;;;;5118841;28;20868;-63
2024/01/27 03:17:43;;;;;;;17.63;6.37;;;0.60;1.00;;;;;;5118328;28;20914;-63
2024/01/27 03:20:12;;;;;;;12.87;5.13;;;0.50;99.90;;;;;;5118046;28;20491;-63
2024/01/27 03:22:41;;;;;;;14.97;6.40;;;0.40;99.90;;;;;;5118226;28;20497;-63
2024/01/27 03:25:12;;;;;;;17.43;5.73;;;0.40;1.00;;;;;;5118193;28;20562;-63
2024/01/27 03:27:40;;;;;;;12.00;5.33;;;0.30;1.00;;;;;;5117750;28;20474;-63
2024/01/27 03:30:09;;;;;;;14.93;7.17;;;0.20;1.00;;;;;;5118065;28;20487;-63
2024/01/27 03:32:37;;;;;;;15.87;5.90;;;0.20;99.90;;;;;;5118054;28;20912;-63
2024/01/27 03:35:08;;;;;;;12.30;6.03;;;0.20;1.00;;;;;;5118143;28;20949;-63
2024/01/27 03:37:37;;;;;;;20.20;6.23;;;0.20;1.00;;;;;;5117220;28;20496;-63
2024/01/27 03:40:06;;;;;;;20.00;6.73;;;0.10;1.00;;;;;;5117789;28;20586;-63
2024/01/27 03:42:33;;;;;;;14.30;5.77;;;0.10;1.00;;;;;;5118052;28;20469;-64
2024/01/27 03:45:00;;;;;;;17.60;7.20;;;0.00;99.90;;;;;;5117721;28;20468;-62
2024/01/27 03:47:27;;;;;;;13.60;6.17;;;0.00;99.90;;;;;;5117881;28;20550;-63
2024/01/27 03:49:55;;;;;;;14.90;6.90;;;0.00;1.00;;;;;;5117775;28;20439;-62
2024/01/27 03:52:23;;;;;;;14.40;6.33;;;-0.10;1.00;;;;;;5117990;28;20867;-62
2024/01/27 03:54:51;;;;;;;14.60;6.23;;;0.00;1.00;;;;;;5118227;28;20462;-63
2024/01/27 03:57:18;;;;;;;19.40;7.30;;;-0.10;1.00;;;;;;5118205;28;20463;-63
2024/01/27 03:59:45;;;;;;;16.77;5.57;;;-0.10;1.00;;;;;;5117403;28;20583;-62
2024/01/27 04:02:12;;;;;;;19.93;6.70;;;-0.10;1.00;;;;;;5117915;28;20511;-62
2024/01/27 04:04:39;;;;;;;17.63;6.53;;;-0.20;1.00;;;;;;5117850;28;20455;-62
2024/01/27 04:07:07;;;;;;;18.90;7.20;;;-0.20;1.00;;;;;;5118154;28;20541;-62
2024/01/27 04:09:36;;;;;;;13.67;6.40;;;-0.30;1.00;;;;;;5117520;28;20466;-62
2024/01/27 04:12:03;;;;;;;12.80;6.50;;;-0.30;1.00;;;;;;5117583;28;20470;-62
2024/01/27 04:14:31;;;;;;;17.00;6.27;;;-0.30;1.00;;;;;;5120207;28;20464;-62
2024/01/27 04:16:58;;;;;;;15.47;6.53;;;-0.30;5.90;;;;;;5122140;28;20509;-62
2024/01/27 04:19:25;;;;;;;13.63;6.10;;;-0.40;9.90;;;;;;5121363;28;20587;-62
2024/01/27 04:21:53;;;;;;;12.67;6.50;;;-0.30;53.10;;;;;;5121605;28;20498;-62
2024/01/27 04:24:20;;;;;;;18.33;7.60;;;-0.40;70.80;;;;;;5121572;28;20487;-62
2024/01/27 04:26:49;;;;;;;16.43;6.53;;;-0.40;99.90;;;;;;5122209;28;20462;-62
2024/01/27 04:29:16;;;;;;;17.33;7.63;;;-0.30;99.90;;;;;;5121783;28;20909;-61
2024/01/27 04:31:44;;;;;;;15.70;7.17;;;-0.30;99.90;;;;;;5121581;28;20556;-62
2024/01/27 04:34:11;;;;;;;16.23;7.70;;;-0.20;99.90;;;;;;5121470;28;20907;-61
2024/01/27 04:36:39;;;;;;;15.00;7.10;;;-0.20;99.90;;;;;;5121588;28;20497;-61
2024/01/27 04:39:06;;;;;;;17.97;7.80;;;-0.30;99.90;;;;;;5121633;28;20548;-61
2024/01/27 04:41:33;;;;;;;17.30;7.43;;;-0.20;99.90;;;;;;5121534;28;20492;-62
2024/01/27 04:44:02;;;;;;;17.27;8.40;;;-0.30;99.90;;;;;;5121431;28;20946;-62
2024/01/27 04:46:29;;;;;;;17.43;8.67;;;-0.30;99.90;;;;;;5121153;28;20456;-61
2024/01/27 04:48:56;;;;;;;16.60;8.20;;;-0.30;99.90;;;;;;5121855;28;20486;-61
2024/01/27 04:51:23;;;;;;;15.53;6.90;;;-0.40;99.90;;;;;;5120771;28;20486;-61
2024/01/27 04:53:51;;;;;;;17.43;7.23;;;-0.40;99.90;;;;;;5121009;27;20813;-61
2024/01/27 04:56:19;;;;;;;13.77;8.00;;;-0.40;99.90;;;;;;5121299;28;20536;-60
2024/01/27 04:58:46;;;;;;;17.30;8.00;;;-0.30;99.90;;;;;;5121064;28;20503;-61
2024/01/27 05:01:14;;;;;;;15.50;8.90;;;-0.30;99.90;;;;;;5120559;28;20489;-61
2024/01/27 05:03:42;;;;;;;18.90;8.63;;;-0.30;99.90;;;;;;5120809;28;20553;-61
2024/01/27 05:06:10;;;;;;;17.03;8.33;;;-0.30;99.90;;;;;;5121326;28;20541;-61
2024/01/27 05:08:37;;;;;;;15.43;8.10;;;-0.30;99.90;;;;;;5121068;28;20764;-61
2024/01/27 05:11:04;;;;;;;18.60;8.50;;;-0.40;99.90;;;;;;5120551;27;20625;-61
2024/01/27 05:13:32;;;;;;;14.40;7.90;;;-0.40;99.90;;;;;;5120463;27;20461;-60
2024/01/27 05:15:59;;;;;;;14.80;8.10;;;-0.40;99.90;;;;;;5120982;28;20773;-61
2024/01/27 05:18:28;;;;;;;19.10;8.20;;;-0.30;99.90;;;;;;5121313;28;20904;-61
2024/01/27 05:20:55;;;;;;;14.83;8.13;;;-0.20;99.90;;;;;;5120581;28;20571;-61
2024/01/27 05:23:23;;;;;;;17.90;9.40;;;-0.20;99.90;;;;;;5120924;28;20490;-61
2024/01/27 05:25:50;;;;;;;12.73;7.57;;;-0.10;99.90;;;;;;5119358;28;20461;-61
2024/01/27 05:28:17;;;;;;;14.97;7.83;;;-0.30;99.90;;;;;;5120394;28;20467;-61
2024/01/27 05:30:45;;;;;;;19.03;9.03;;;-0.30;99.90;;;;;;5120770;28;20492;-61
2024/01/27 05:33:12;;;;;;;17.63;8.70;;;-0.30;99.90;;;;;;5120495;28;20490;-61
2024/01/27 05:35:41;;;;;;;20.93;9.50;;;-0.20;99.90;;;;;;5120386;28;20446;-61
2024/01/27 05:38:08;;;;;;;17.57;9.20;;;-0.20;99.90;;;;;;5120231;28;20556;-60
2024/01/27 05:40:35;;;;;;;17.40;8.30;;;-0.20;99.90;;;;;;5120225;28;20495;-61
2024/01/27 05:43:02;;;;;;;17.50;8.63;;;-0.10;99.90;;;;;;5120376;28;20737;-61
2024/01/27 05:45:31;;;;;;;20.70;8.67;;;-0.10;99.90;;;;;;5120125;27;20440;-60
2024/01/27 05:47:58;;;;;;;20.73;9.17;;;-0.10;99.90;;;;;;5119833;28;20440;-60
2024/01/27 05:50:25;;;;;;;17.30;9.13;;;-0.10;99.90;;;;;;5119564;28;20497;-60
2024/01/27 05:52:54;;;;;;;18.27;8.80;;;-0.10;99.90;;;;;;5120121;28;20459;-60
2024/01/27 05:55:21;;;;;;;16.70;8.87;;;-0.10;99.90;;;;;;5120179;28;20490;-60
2024/01/27 05:57:48;;;;;;;15.67;8.63;;;-0.20;99.90;;;;;;5119427;28;20909;-60
2024/01/27 06:00:16;;;;;;;13.60;7.70;;;-0.20;99.90;;;;;;5119704;27;20522;-60
2024/01/27 06:02:43;;;;;;;12.77;7.90;;;-0.30;99.90;;;;;;5119946;28;20459;-61
2024/01/27 06:05:10;;;;;;;13.03;8.27;;;-0.40;99.90;;;;;;5119866;28;20465;-60
2024/01/27 06:07:39;;;;;;;13.10;7.37;;;-0.40;99.90;;;;;;5119607;28;20459;-61
2024/01/27 06:10:10;;;;;;;13.23;7.37;;;-0.50;69.20;;;;;;5119183;28;20455;-60
2024/01/27 06:12:38;;;;;;;12.53;8.10;;;-0.50;99.90;;;;;;5119516;28;20459;-60
2024/01/27 06:15:08;;;;;;;21.13;8.90;;;-0.40;99.90;;;;;;5119116;28;20515;-60
2024/01/27 06:17:35;;;;;;;16.30;8.30;;;-0.50;99.90;;;;;;5119527;28;20465;-60
2024/01/27 06:20:04;;;;;;;16.40;7.83;;;-0.40;99.90;;;;;;5119282;28;20597;-61
2024/01/27 06:22:32;;;;;;;17.53;8.30;;;-0.30;99.90;;;;;;5119486;28;20459;-60
2024/01/27 06:25:00;;;;;;;19.33;8.40;;;-0.20;99.90;;;;;;5117660;27;20474;-60
2024/01/27 06:27:29;;;;;;;11.97;8.03;;;-0.30;99.90;;;;;;5117426;28;20467;-61
2024/01/27 06:29:56;;;;;;;15.03;8.30;;;-0.40;99.90;;;;;;5118465;28;20540;-60
2024/01/27 06:32:23;;;;;;;16.20;7.90;;;-0.40;99.90;;;;;;5118662;28;20458;-60
2024/01/27 06:34:50;;;;;;;14.33;7.13;;;-0.50;59.00;;;;;;5117594;28;20462;-60
2024/01/27 06:37:17;;;;;;;16.63;8.80;;;-0.50;1.00;;;;;;5118230;28;20896;-61
2024/01/27 06:39:44;;;;;;;17.77;7.87;;;-0.50;1.00;;;;;;5118861;28;20643;-62
2024/01/27 06:42:12;;;;;;;16.80;7.60;;;-0.50;1.00;;;;;;5118788;28;20458;-62
2024/01/27 06:44:40;;;;;;;13.83;8.20;;;-0.50;1.00;;;;;;5118999;28;20455;-61
2024/01/27 06:47:08;;;;;;;17.53;8.30;;;-0.50;1.00;;;;;;5119049;28;20519;-61
2024/01/27 06:49:35;;;;;;;15.07;7.97;;;-0.50;1.00;;;;;;5118587;28;20455;-62
2024/01/27 06:52:02;;;;;;;11.53;7.87;;;-0.50;1.00;;;;;;5118761;28;20454;-61
2024/01/27 06:54:29;;;;;;;14.73;8.03;;;-0.50;1.00;;;;;;5118730;28;20529;-61
2024/01/27 06:56:57;;;;;;;21.97;9.13;;;-0.60;1.00;;;;;;5118647;28;20430;-61
2024/01/27 06:59:24;;;;;;;12.57;8.00;;;-0.70;1.00;;;;;;5118460;28;20538;-61
2024/01/27 07:01:52;;;;;;;19.17;9.30;;;-0.70;1.00;;;;;;5118405;27;20527;-61
2024/01/27 07:04:20;;;;;;;14.50;7.93;;;-0.70;1.00;;;;;;5118576;27;20494;-62
2024/01/27 07:06:47;;;;;;;18.27;8.07;;;-0.70;1.00;;;;;;5118766;28;20536;-61
2024/01/27 07:09:14;;;;;;;16.60;10.03;;;-0.70;1.00;;;;;;5117609;28;20838;-62
2024/01/27 07:11:41;;;;;;;17.10;8.00;;;-0.70;1.00;;;;;;5115438;28;20576;-61
2024/01/27 07:14:09;;;;;;;19.37;8.57;;;-0.60;1.00;;;;;;5116579;28;20458;-62
2024/01/27 07:16:36;;;;;;;19.57;9.00;;;-0.50;1.00;;;;;;5116530;28;20506;-62
2024/01/27 07:19:05;;;;;;;15.20;9.50;;;-0.50;14.50;;;;;;5116534;28;20495;-62
2024/01/27 07:21:32;;;;;;;16.50;9.97;;;-0.60;8.10;;;;;;5116019;28;20490;-61
2024/01/27 07:23:59;;;;;;;15.17;8.53;;;-0.70;1.00;;;;;;5116444;28;20466;-61
2024/01/27 07:26:26;;;;;;;21.07;8.87;;;-0.70;1.00;;;;;;5116735;28;20554;-62
2024/01/27 07:28:54;;;;;;;15.23;9.33;;;-0.60;58.40;;;;;;5113167;28;20744;-62
2024/01/27 07:31:21;;;;;;;16.77;9.13;;;-0.50;99.90;;;;;;5116460;28;20544;-61
2024/01/27 07:33:48;;;;;;;15.83;9.80;;;-0.40;99.90;;;;;;5116123;28;20442;-61
2024/01/27 07:36:17;;;;;;;21.50;10.67;;;-0.30;99.90;;;;;;5116361;28;20459;-62
2024/01/27 07:38:44;;;;;;;22.40;12.10;;;-0.40;99.90;;;;;;5116327;28;20429;-61
2024/01/27 07:41:12;;;;;;;20.43;12.50;;;-0.30;99.90;;;;;;5117095;28;20486;-61
2024/01/27 07:43:39;;;;;;;21.27;11.33;;;-0.30;99.90;;;;;;5118385;28;20461;-61
2024/01/27 07:46:06;;;;;;;28.87;14.80;;;-0.20;99.90;;;;;;5118053;28;20516;-61
2024/01/27 07:48:34;;;;;;;21.20;13.37;;;-0.20;99.90;;;;;;5117210;28;20883;-61
2024/01/27 07:51:02;;;;;;;18.93;12.10;;;-0.20;99.90;;;;;;5117912;28;20508;-61
2024/01/27 07:53:30;;;;;;;28.30;17.00;;;-0.20;99.90;;;;;;5117922;28;20881;-62
2024/01/27 07:55:58;;;;;;;21.90;14.33;;;-0.20;99.90;;;;;;5117541;28;20457;-61
2024/01/27 07:58:25;;;;;;;20.03;13.10;;;-0.20;99.90;;;;;;5117584;28;20459;-61
2024/01/27 08:00:52;;;;;;;21.17;11.60;;;-0.10;99.90;;;;;;5118125;28;20492;-61
2024/01/27 08:03:20;;;;;;;17.83;10.77;;;-0.10;99.90;;;;;;5117131;28;20432;-62
2024/01/27 08:05:48;;;;;;;18.47;12.53;;;-0.10;99.90;;;;;;5116959;28;20858;-62
2024/01/27 08:08:15;;;;;;;22.00;11.67;;;-0.10;99.90;;;;;;5117497;28;20489;-61
2024/01/27 08:10:44;;;;;;;18.63;12.43;;;0.00;99.90;;;;;;5117208;28;20767;-61
2024/01/27 08:13:12;;;;;;;17.67;11.90;;;0.10;99.90;;;;;;5116849;28;20516;-61
2024/01/27 08:15:39;;;;;;;25.77;13.30;;;0.30;99.90;;;;;;5115712;28;20529;-61
2024/01/27 08:18:06;;;;;;;22.93;13.03;;;0.40;99.90;;;;;;5115539;28;20900;-62
2024/01/27 08:20:34;;;;;;;26.47;14.93;;;0.60;99.90;;;;;;5116401;28;20529;-61
2024/01/27 08:23:01;;;;;;;16.60;11.57;;;0.70;99.90;;;;;;5116333;28;20778;-62
2024/01/27 08:25:28;;;;;;;19.20;11.60;;;0.80;99.90;;;;;;5116121;28;20487;-61
2024/01/27 08:27:57;;;;;;;19.43;10.63;;;1.00;99.90;;;;;;5115773;28;20463;-61
2024/01/27 08:30:25;;;;;;;20.57;11.90;;;1.10;99.90;;;;;;5117694;28;20454;-61
2024/01/27 08:32:52;;;;;;;24.50;10.73;;;1.30;99.90;;;;;;5118071;28;20555;-61
2024/01/27 08:35:19;;;;;;;21.27;11.20;;;1.30;99.90;;;;;;5116939;28;20459;-61
2024/01/27 08:37:47;;;;;;;19.73;11.70;;;1.60;99.90;;;;;;5117035;28;20459;-61
2024/01/27 08:40:14;;;;;;;15.73;10.07;;;1.70;99.90;;;;;;5117910;28;20734;-61
2024/01/27 08:42:42;;;;;;;20.53;10.87;;;1.90;99.90;;;;;;5117204;28;20455;-60
2024/01/27 08:45:11;;;;;;;28.50;11.67;;;2.10;99.90;;;;;;5117118;28;20451;-65
2024/01/27 08:47:39;;;;;;;21.37;10.30;;;2.40;99.90;;;;;;5115435;28;20478;-64
2024/01/27 08:50:07;;;;;;;20.00;10.80;;;2.50;99.90;;;;;;5115688;28;20459;-65
2024/01/27 08:52:35;;;;;;;18.30;9.87;;;2.70;99.90;;;;;;5116312;28;20451;-64
2024/01/27 08:55:03;;;;;;;14.90;8.93;;;2.90;99.90;;;;;;5114202;28;20459;-65
2024/01/27 08:57:30;;;;;;;16.50;9.40;;;3.10;2.00;;;;;;5115569;28;20504;-65
2024/01/27 08:59:57;;;;;;;20.60;10.57;;;3.10;1.00;;;;;;5117848;28;20458;-65
2024/01/27 09:02:26;;;;;;;25.70;12.80;;;3.20;86.00;;;;;;5120680;28;20627;-65
2024/01/27 09:04:54;;;;;;;14.80;8.70;;;3.30;99.90;;;;;;5122414;28;20456;-65
2024/01/27 09:07:21;;;;;;;16.13;9.07;;;3.40;20.90;;;;;;5123733;28;20519;-65
2024/01/27 09:09:49;;;;;;;18.70;10.20;;;3.60;1.00;;;;;;5123960;28;20674;-64
2024/01/27 09:12:17;;;;;;;19.97;10.37;;;3.50;1.00;;;;;;5126962;28;20476;-65
2024/01/27 09:14:45;;;;;;;15.27;9.97;;;3.80;1.00;;;;;;5125603;28;20438;-65
2024/01/27 09:17:13;;;;;;;18.80;14.83;;;4.10;99.90;;;;;;5127187;28;20459;-65
2024/01/27 09:19:41;;;;;;;19.37;15.87;;;4.30;57.40;;;;;;5128798;28;20496;-64
2024/01/27 09:22:09;;;;;;;21.10;11.27;;;4.50;1.00;;;;;;5133477;28;20487;-64
2024/01/27 09:24:36;;;;;;;13.73;8.60;;;4.60;1.00;;;;;;5132258;28;20469;-64
2024/01/27 09:27:05;;;;;;;17.50;9.50;;;4.80;99.90;;;;;;5132789;28;20459;-64
2024/01/27 09:29:32;;;;;;;12.70;6.90;;;4.80;99.90;;;;;;5133148;28;20489;-64
2024/01/27 09:32:01;;;;;;;24.60;10.37;;;5.00;99.90;;;;;;5134442;28;20477;-64
2024/01/27 09:34:29;;;;;;;23.63;11.70;;;5.20;99.90;;;;;;5134505;28;20496;-64
2024/01/27 09:36:59;;;;;;;15.30;10.30;;;5.40;99.90;;;;;;5133000;28;20473;-64
2024/01/27 09:39:26;;;;;;;16.93;10.03;;;5.50;13.60;;;;;;5120986;28;20482;-64
2024/01/27 09:41:55;;;;;;;18.83;9.37;;;5.50;1.00;;;;;;5125146;28;20505;-64
2024/01/27 09:44:25;;;;;;;18.80;10.73;;;5.60;1.00;;;;;;5121192;28;20495;-64
2024/01/27 09:46:53;;;;;;;20.67;9.20;;;5.70;1.00;;;;;;5127537;28;20443;-65
2024/01/27 09:49:20;;;;;;;16.67;8.13;;;5.70;1.00;;;;;;5127076;28;20853;-64
2024/01/27 09:51:48;;;;;;;15.20;8.20;;;5.80;1.00;;;;;;5109023;28;20461;-64
2024/01/27 09:54:19;;;;;;;14.83;7.47;;;5.90;1.00;;;;;;5110455;28;20490;-65
2024/01/27 09:56:47;;;;;;;16.87;7.23;;;6.00;1.00;;;;;;5128836;28;20467;-64
2024/01/27 09:59:18;;;;;;;19.10;7.73;;;6.20;1.00;;;;;;5130935;28;20463;-64
2024/01/27 10:01:47;;;;;;;12.97;6.50;;;6.20;1.00;;;;;;5132105;28;20494;-64
2024/01/27 10:04:15;;;;;;;16.80;7.03;;;6.40;1.00;;;;;;5131497;28;20464;-64
2024/01/27 10:06:43;;;;;;;10.53;5.67;;;6.50;1.00;;;;;;5130775;28;20455;-64
2024/01/27 10:09:11;;;;;;;12.67;5.80;;;6.70;1.00;;;;;;5130989;28;20460;-64
2024/01/27 10:11:43;;;;;;;10.30;5.63;;;6.80;1.00;;;;;;5129200;28;20479;-64
2024/01/27 10:14:10;;;;;;;11.47;5.40;;;6.90;1.00;;;;;;5131661;28;20477;-64
2024/01/27 10:16:42;;;;;;;14.17;6.03;;;6.90;1.00;;;;;;5131155;28;20467;-64
2024/01/27 10:19:16;;;;;;;17.00;6.00;;;6.90;1.00;;;;;;5131963;28;20493;-64
2024/01/27 10:21:44;;;;;;;14.60;6.80;;;7.10;1.00;;;;;;5132731;28;20491;-64
2024/01/27 10:24:12;;;;;;;16.77;6.10;;;7.30;1.00;;;;;;5131536;28;20459;-64
2024/01/27 10:26:41;;;;;;;10.80;6.07;;;7.40;1.00;;;;;;5130460;28;20505;-64
2024/01/27 10:29:10;;;;;;;16.07;6.30;;;7.50;1.00;;;;;;5131813;28;20459;-64
2024/01/27 10:31:38;;;;;;;13.30;6.93;;;7.70;1.00;;;;;;5130113;28;20455;-64
2024/01/27 10:34:09;;;;;;;18.33;6.20;;;8.00;1.00;;;;;;5130748;28;20452;-64
2024/01/27 10:36:43;;;;;;;14.13;6.20;;;8.10;1.00;;;;;;5131317;28;20449;-64
2024/01/27 10:39:18;;;;;;;16.30;7.20;;;8.30;1.00;;;;;;5131380;28;20459;-64
2024/01/27 10:41:50;;;;;;;12.40;6.50;;;8.50;1.00;;;;;;5129132;28;20491;-65
2024/01/27 10:44:19;;;;;;;12.47;5.13;;;8.60;1.00;;;;;;5128231;28;20438;-65
2024/01/27 10:46:47;;;;;;;12.03;5.20;;;8.40;1.00;;;;;;5127716;28;20432;-65
2024/01/27 10:49:16;;;;;;;14.90;5.43;;;8.50;1.00;;;;;;5126729;28;20460;-65
2024/01/27 10:51:47;;;;;;;14.47;5.10;;;8.60;1.00;;;;;;5126041;27;20455;-65
2024/01/27 10:54:22;;;;;;;13.63;5.20;;;8.70;1.00;;;;;;5126663;28;20430;-65
2024/01/27 10:56:53;;;;;;;15.63;5.80;;;8.50;99.90;;;;;;5127443;28;20478;-65
2024/01/27 10:59:22;;;;;;;9.80;5.90;;;8.50;99.90;;;;;;5126691;28;20486;-65
2024/01/27 11:01:53;;;;;;;20.77;6.87;;;8.80;1.00;;;;;;5126466;28;20787;-65
2024/01/27 11:04:22;;;;;;;10.53;5.17;;;8.90;99.90;;;;;;5115493;28;20472;-65
2024/01/27 11:06:49;;;;;;;14.80;6.53;;;9.20;99.90;;;;;;5121034;28;20472;-65
2024/01/27 11:09:18;;;;;;;18.17;6.77;;;9.30;99.90;;;;;;5114716;27;20479;-65
2024/01/27 11:11:48;;;;;;;17.67;7.00;;;9.40;99.90;;;;;;5106736;28;20490;-65
2024/01/27 11:14:17;;;;;;;15.83;7.00;;;9.70;99.90;;;;;;5109549;28;20472;-65
2024/01/27 11:16:47;;;;;;;18.50;8.57;;;9.70;99.90;;;;;;5107018;28;20843;-65
2024/01/27 11:19:15;;;;;;;14.10;5.73;;;9.80;99.90;;;;;;5117422;28;20475;-65
2024/01/27 11:21:43;;;;;;;13.43;4.53;;;9.90;99.90;;;;;;5118923;28;20498;-65
2024/01/27 11:24:16;;;;;;;15.10;4.53;;;10.00;99.90;;;;;;5115550;28;20471;-65
2024/01/27 11:26:43;;;;;;;15.30;5.80;;;10.10;99.90;;;;;;5116394;28;20504;-65
2024/01/27 11:29:19;;;;;;;7.83;4.07;;;9.90;99.90;;;;;;5114024;28;20467;-66
2024/01/27 11:31:50;;;;;;;11.13;5.00;;;9.80;99.90;;;;;;5114117;28;20551;-65
2024/01/27 11:34:19;;;;;;;18.73;5.73;;;9.60;99.90;;;;;;5117641;28;20964;-65
2024/01/27 11:36:47;;;;;;;12.73;6.00;;;9.70;99.90;;;;;;5109933;28;20465;-65
2024/01/27 11:39:26;;;;;;;9.43;5.20;;;10.00;99.90;;;;;;5103186;28;20439;-65
2024/01/27 11:41:54;;;;;;;11.73;4.70;;;10.20;99.90;;;;;;5123689;28;20799;-66
2024/01/27 11:44:22;;;;;;;12.17;5.37;;;10.20;99.90;;;;;;5123714;28;20867;-66
2024/01/27 11:46:53;;;;;;;18.17;6.17;;;10.20;99.90;;;;;;5110772;28;20476;-65
2024/01/27 11:49:21;;;;;;;12.87;6.00;;;10.30;99.90;;;;;;5108798;28;20487;-65
2024/01/27 11:51:50;;;;;;;15.40;6.70;;;10.40;99.90;;;;;;5107599;28;20527;-65
2024/01/27 11:54:17;;;;;;;10.27;5.20;;;10.50;99.90;;;;;;5098833;28;20460;-66
2024/01/27 11:56:46;;;;;;;10.33;5.10;;;10.70;99.90;;;;;;5098844;28;20456;-65
2024/01/27 11:59:13;;;;;;;12.60;5.03;;;10.70;99.90;;;;;;5097067;28;20495;-66
2024/01/27 12:01:41;;;;;;;9.10;4.20;;;10.80;99.90;;;;;;5097855;28;20484;-67
2024/01/27 12:04:13;;;;;;;11.93;4.53;;;10.50;99.90;;;;;;5096987;28;20460;-65
2024/01/27 12:06:41;;;;;;;9.53;4.30;;;10.30;99.90;;;;;;5097461;28;20528;-66
2024/01/27 12:09:11;;;;;;;12.00;4.40;;;10.40;99.90;;;;;;5095475;28;20509;-66
2024/01/27 12:11:41;;;;;;;12.13;5.20;;;10.30;99.90;;;;;;5093777;28;20458;-66
2024/01/27 12:14:08;;;;;;;10.87;5.30;;;10.40;99.90;;;;;;5093137;28;20467;-66
2024/01/27 12:16:36;;;;;;;11.37;4.60;;;10.70;99.90;;;;;;5094744;28;20460;-66
2024/01/27 12:19:04;;;;;;;14.40;4.60;;;10.80;99.90;;;;;;5095263;28;20474;-66
2024/01/27 12:21:33;;;;;;;18.67;7.20;;;10.80;99.90;;;;;;5095066;28;20845;-66
2024/01/27 12:24:01;;;;;;;12.30;5.20;;;10.90;99.90;;;;;;5096050;28;20491;-66
2024/01/27 12:26:30;;;;;;;16.37;4.93;;;10.90;99.90;;;;;;5097143;28;20463;-66
2024/01/27 12:28:58;;;;;;;10.60;4.43;;;10.80;99.90;;;;;;5098474;28;20456;-66
2024/01/27 12:31:27;;;;;;;13.13;5.03;;;10.90;99.90;;;;;;5097439;28;20460;-66
2024/01/27 12:33:58;;;;;;;9.67;4.70;;;10.50;99.90;;;;;;5097817;28;20491;-66
2024/01/27 12:36:26;;;;;;;12.10;5.00;;;10.70;99.90;;;;;;5101966;28;20513;-66
2024/01/27 12:39:01;;;;;;;9.70;3.90;;;10.30;99.90;;;;;;5101975;28;20517;-66
2024/01/27 12:41:29;;;;;;;13.80;5.60;;;10.30;99.90;;;;;;5101470;28;20502;-67
2024/01/27 12:43:57;;;;;;;11.97;3.80;;;10.10;99.90;;;;;;5101271;28;20458;-66
2024/01/27 12:46:25;;;;;;;10.70;4.20;;;10.30;99.90;;;;;;5101382;28;20464;-66
2024/01/27 12:48:53;;;;;;;11.90;4.30;;;10.30;99.90;;;;;;5102620;28;20455;-66